createdAt,value
2022-12-02T00:00:18.906Z,87.40
2022-12-02T00:02:53.477Z,87.35
2022-12-02T00:05:28.727Z,87.40
2022-12-02T00:07:43.208Z,87.10
2022-12-02T00:09:57.018Z,87.19
2022-12-02T00:12:23.229Z,87.03
2022-12-02T00:14:42.698Z,86.89
2022-12-02T00:16:56.942Z,86.91
2022-12-02T00:19:10.443Z,87.30
2022-12-02T00:21:24.401Z,87.54
2022-12-02T00:23:37.894Z,87.40
2022-12-02T00:25:53.477Z,87.26
2022-12-02T00:28:07.190Z,87.21
2022-12-02T00:30:22.037Z,87.21
2022-12-02T00:32:36.052Z,87.14
2022-12-02T00:34:49.745Z,86.97
2022-12-02T00:37:04.445Z,86.88
2022-12-02T00:39:18.872Z,86.76
2022-12-02T00:41:33.054Z,86.94
2022-12-02T00:44:03.121Z,86.87
2022-12-02T00:46:32.899Z,86.68
2022-12-02T00:48:46.558Z,86.58
2022-12-02T00:51:00.069Z,86.81
2022-12-02T00:53:13.913Z,86.71
2022-12-02T00:55:27.847Z,86.66
2022-12-02T00:57:41.352Z,86.57
2022-12-02T00:59:54.848Z,86.52
2022-12-02T01:02:08.442Z,86.73
2022-12-02T01:04:22.200Z,86.70
2022-12-02T01:06:35.744Z,86.79
2022-12-02T01:08:49.318Z,87.22
2022-12-02T01:11:03.551Z,87.48
2022-12-02T01:13:17.159Z,87.60
2022-12-02T01:15:31.190Z,87.41
2022-12-02T01:17:48.442Z,87.53
2022-12-02T01:20:02.223Z,87.47
2022-12-02T01:22:15.906Z,87.53
2022-12-02T01:24:30.707Z,87.51
2022-12-02T01:26:44.387Z,87.68
2022-12-02T01:28:57.914Z,87.61
2022-12-02T01:31:12.944Z,87.57
2022-12-02T01:33:26.510Z,87.60
2022-12-02T01:35:40.141Z,87.47
2022-12-02T01:37:53.758Z,87.64
2022-12-02T01:40:07.641Z,87.72
2022-12-02T01:42:21.271Z,87.78
2022-12-02T01:44:35.495Z,88.03
2022-12-02T01:46:49.423Z,88.07
2022-12-02T01:49:03.008Z,88.06
2022-12-02T01:51:16.695Z,88.23
2022-12-02T01:53:33.607Z,88.28
2022-12-02T01:55:47.313Z,88.43
2022-12-02T01:58:02.157Z,88.58
2022-12-02T02:00:18.074Z,88.70
2022-12-02T02:02:37.479Z,89.16
2022-12-02T02:04:53.242Z,88.85
2022-12-02T02:07:07.297Z,89.01
2022-12-02T02:09:21.215Z,89.14
2022-12-02T02:11:35.187Z,88.84
2022-12-02T02:13:49.606Z,89.15
2022-12-02T02:16:03.353Z,89.24
2022-12-02T02:18:18.938Z,89.13
2022-12-02T02:20:33.205Z,88.95
2022-12-02T02:22:51.617Z,89.33
2022-12-02T02:25:05.211Z,89.19
2022-12-02T02:27:19.241Z,89.23
2022-12-02T02:29:33.070Z,89.21
2022-12-02T02:31:46.800Z,89.19
2022-12-02T02:34:00.394Z,89.23
2022-12-02T02:36:15.601Z,89.09
2022-12-02T02:38:31.526Z,89.23
2022-12-02T02:40:46.027Z,89.32
2022-12-02T02:43:02.484Z,89.46
2022-12-02T02:45:17.607Z,89.51
2022-12-02T02:47:31.580Z,89.75
2022-12-02T02:49:45.651Z,89.80
2022-12-02T02:51:59.606Z,89.99
2022-12-02T02:54:13.848Z,90.21
2022-12-02T02:56:28.133Z,90.43
2022-12-02T02:58:42.186Z,90.27
2022-12-02T03:00:59.421Z,90.09
2022-12-02T03:03:14.774Z,89.88
2022-12-02T03:05:29.377Z,89.87
2022-12-02T03:07:44.535Z,89.86
2022-12-02T03:09:58.910Z,89.74
2022-12-02T03:12:13.824Z,89.78
2022-12-02T03:14:29.670Z,89.94
2022-12-02T03:16:43.820Z,89.82
2022-12-02T03:18:59.687Z,89.96
2022-12-02T03:21:14.749Z,89.94
2022-12-02T03:23:28.809Z,89.85
2022-12-02T03:25:42.808Z,89.94
2022-12-02T03:27:56.689Z,90.07
2022-12-02T03:30:17.957Z,89.94
2022-12-02T03:32:32.539Z,90.11
2022-12-02T03:34:48.372Z,90.27
2022-12-02T03:37:03.203Z,90.43
2022-12-02T03:39:19.178Z,90.44
2022-12-02T03:41:33.481Z,90.43
2022-12-02T03:43:47.435Z,90.44
2022-12-02T03:46:02.988Z,90.49
2022-12-02T03:48:22.292Z,90.51
2022-12-02T03:50:36.425Z,90.48
2022-12-02T03:52:50.838Z,90.50
2022-12-02T03:55:04.686Z,90.54
2022-12-02T03:57:18.720Z,90.56
2022-12-02T03:59:33.268Z,90.68
2022-12-02T04:01:47.270Z,90.64
2022-12-02T04:04:01.179Z,90.84
2022-12-02T04:06:16.308Z,90.81
2022-12-02T04:08:30.258Z,90.86
2022-12-02T04:10:43.991Z,90.93
2022-12-02T04:12:58.267Z,91.05
2022-12-02T04:15:13.717Z,91.10
2022-12-02T04:17:27.564Z,90.93
2022-12-02T04:19:41.396Z,91.05
2022-12-02T04:21:55.220Z,91.09
2022-12-02T04:24:09.215Z,91.13
2022-12-02T04:26:23.383Z,91.12
2022-12-02T04:28:37.338Z,91.18
2022-12-02T04:30:51.332Z,91.09
2022-12-02T04:33:05.171Z,90.94
2022-12-02T04:35:21.469Z,90.93
2022-12-02T04:37:35.410Z,91.15
2022-12-02T04:39:49.416Z,91.00
2022-12-02T04:42:03.590Z,91.10
2022-12-02T04:44:18.419Z,91.18
2022-12-02T04:46:32.561Z,91.17
2022-12-02T04:48:46.549Z,91.32
2022-12-02T04:51:00.464Z,91.37
2022-12-02T04:53:14.463Z,91.40
2022-12-02T04:55:28.448Z,91.30
2022-12-02T04:57:42.889Z,91.12
2022-12-02T04:59:56.890Z,91.06
2022-12-02T05:02:10.885Z,91.24
2022-12-02T05:04:24.925Z,91.09
2022-12-02T05:06:38.967Z,90.99
2022-12-02T05:08:55.746Z,90.90
2022-12-02T05:11:09.778Z,90.63
2022-12-02T05:13:23.701Z,90.42
2022-12-02T05:15:37.715Z,90.49
2022-12-02T05:17:51.834Z,90.43
2022-12-02T05:20:05.746Z,90.63
2022-12-02T05:22:19.692Z,90.88
2022-12-02T05:24:34.027Z,90.87
2022-12-02T05:26:47.813Z,91.01
2022-12-02T05:29:01.651Z,90.83
2022-12-02T05:31:15.473Z,90.92
2022-12-02T05:33:29.367Z,91.03
2022-12-02T05:35:43.186Z,91.07
2022-12-02T05:38:00.300Z,91.22
2022-12-02T05:40:19.070Z,91.25
2022-12-02T05:42:33.410Z,91.13
2022-12-02T05:44:47.955Z,91.21
2022-12-02T05:47:06.409Z,91.28
2022-12-02T05:49:24.076Z,91.08
2022-12-02T05:51:39.475Z,91.12
2022-12-02T05:53:54.548Z,91.06
2022-12-02T05:56:10.816Z,91.02
2022-12-02T05:58:25.653Z,90.88
2022-12-02T06:00:40.089Z,90.91
2022-12-02T06:02:56.173Z,90.90
2022-12-02T06:05:19.783Z,90.70
2022-12-02T06:07:34.817Z,90.73
2022-12-02T06:09:49.549Z,90.77
2022-12-02T06:12:04.105Z,90.66
2022-12-02T06:14:22.684Z,90.71
2022-12-02T06:16:38.293Z,90.83
2022-12-02T06:18:51.975Z,90.98
2022-12-02T06:21:14.562Z,90.91
2022-12-02T06:23:29.984Z,91.13
2022-12-02T06:25:43.566Z,90.92
2022-12-02T06:27:59.663Z,90.90
2022-12-02T06:30:21.462Z,90.94
2022-12-02T06:32:43.782Z,90.77
2022-12-02T06:34:58.107Z,90.86
2022-12-02T06:37:17.982Z,90.73
2022-12-02T06:39:31.822Z,90.64
2022-12-02T06:41:46.782Z,90.42
2022-12-02T06:44:20.912Z,90.58
2022-12-02T06:46:36.989Z,90.58
2022-12-02T06:48:50.691Z,90.38
2022-12-02T06:51:16.614Z,90.57
2022-12-02T06:53:46.417Z,90.71
2022-12-02T06:56:04.412Z,90.51
2022-12-02T06:58:33.443Z,90.74
2022-12-02T07:00:47.355Z,90.61
2022-12-02T07:03:01.257Z,90.78
2022-12-02T07:05:20.407Z,91.03
2022-12-02T07:07:36.022Z,91.13
2022-12-02T07:09:51.152Z,91.23
2022-12-02T07:12:06.010Z,91.31
2022-12-02T07:14:29.385Z,91.37
2022-12-02T07:16:43.505Z,91.43
2022-12-02T07:18:57.971Z,91.56
2022-12-02T07:21:18.480Z,91.75
2022-12-02T07:23:33.216Z,91.92
2022-12-02T07:25:50.356Z,91.98
2022-12-02T07:28:05.807Z,92.34
2022-12-02T07:30:29.194Z,92.30
2022-12-02T07:32:43.891Z,92.47
2022-12-02T07:34:58.307Z,92.56
2022-12-02T07:37:12.424Z,92.39
2022-12-02T07:39:26.482Z,92.62
2022-12-02T07:41:40.549Z,92.51
2022-12-02T07:43:56.224Z,92.67
2022-12-02T07:46:10.261Z,93.04
2022-12-02T07:48:24.194Z,92.95
2022-12-02T07:50:38.082Z,93.19
2022-12-02T07:52:52.353Z,93.32
2022-12-02T07:55:06.349Z,93.70
2022-12-02T07:57:20.138Z,93.77
2022-12-02T07:59:34.164Z,94.08
2022-12-02T08:01:49.134Z,94.42
2022-12-02T08:04:03.224Z,94.42
2022-12-02T08:06:17.217Z,94.41
2022-12-02T08:08:31.085Z,94.17
2022-12-02T08:10:45.050Z,93.99
2022-12-02T08:12:58.982Z,94.13
2022-12-02T08:15:15.333Z,93.94
2022-12-02T08:17:29.446Z,93.99
2022-12-02T08:19:43.730Z,94.13
2022-12-02T08:21:57.669Z,94.33
2022-12-02T08:24:12.126Z,94.51
2022-12-02T08:26:25.956Z,95.05
2022-12-02T08:28:39.694Z,95.61
2022-12-02T08:30:54.229Z,96.15
2022-12-02T08:33:09.109Z,96.60
2022-12-02T08:35:23.453Z,96.57
2022-12-02T08:37:37.375Z,96.75
2022-12-02T08:39:51.237Z,96.84
2022-12-02T08:42:05.084Z,96.91
2022-12-02T08:44:18.777Z,97.22
2022-12-02T08:46:32.605Z,97.25
2022-12-02T08:48:46.480Z,97.26
2022-12-02T08:51:00.311Z,97.08
2022-12-02T08:53:14.551Z,97.08
2022-12-02T08:55:28.723Z,96.86
2022-12-02T08:57:42.496Z,96.70
2022-12-02T08:59:56.129Z,96.65
2022-12-02T09:02:10.611Z,96.49
2022-12-02T09:04:25.095Z,96.21
2022-12-02T09:06:39.152Z,96.20
2022-12-02T09:08:52.877Z,95.91
2022-12-02T09:11:07.741Z,95.77
2022-12-02T09:13:21.451Z,95.87
2022-12-02T09:15:35.191Z,95.90
2022-12-02T09:17:48.916Z,95.75
2022-12-02T09:20:02.660Z,95.74
2022-12-02T09:22:16.355Z,95.64
2022-12-02T09:24:29.997Z,95.62
2022-12-02T09:26:43.841Z,95.66
2022-12-02T09:28:57.450Z,95.34
2022-12-02T09:31:11.142Z,95.19
2022-12-02T09:33:28.069Z,94.99
2022-12-02T09:35:46.040Z,94.94
2022-12-02T09:37:59.720Z,95.02
2022-12-02T09:40:18.433Z,95.11
2022-12-02T09:42:32.445Z,95.06
2022-12-02T09:44:47.173Z,94.91
2022-12-02T09:47:00.868Z,95.11
2022-12-02T09:49:14.865Z,95.18
2022-12-02T09:51:28.598Z,95.34
2022-12-02T09:53:45.318Z,95.45
2022-12-02T09:55:59.435Z,95.54
2022-12-02T09:58:19.504Z,95.54
2022-12-02T10:00:33.598Z,95.38
2022-12-02T10:02:50.246Z,95.58
2022-12-02T10:05:08.388Z,95.43
2022-12-02T10:07:22.355Z,95.36
2022-12-02T10:09:36.796Z,95.31
2022-12-02T10:11:50.936Z,95.61
2022-12-02T10:14:08.394Z,95.82
2022-12-02T10:16:22.457Z,95.84
2022-12-02T10:18:37.809Z,96.13
2022-12-02T10:20:52.701Z,96.42
2022-12-02T10:23:15.658Z,96.29
2022-12-02T10:25:38.355Z,96.33
2022-12-02T10:27:52.518Z,96.22
2022-12-02T10:30:23.773Z,96.17
2022-12-02T10:32:37.582Z,96.32
2022-12-02T10:35:07.754Z,96.41
2022-12-02T10:37:30.404Z,96.61
2022-12-02T10:39:44.725Z,96.80
2022-12-02T10:42:18.354Z,96.86
2022-12-02T10:44:32.039Z,97.19
2022-12-02T10:46:47.041Z,97.25
2022-12-02T10:49:18.175Z,97.30
2022-12-02T10:51:31.985Z,97.51
2022-12-02T10:53:45.819Z,97.40
2022-12-02T10:55:59.964Z,97.29
2022-12-02T10:58:19.590Z,97.33
2022-12-02T11:00:33.911Z,97.26
2022-12-02T11:02:52.112Z,97.21
2022-12-02T11:05:14.910Z,97.24
2022-12-02T11:07:32.546Z,97.26
2022-12-02T11:09:47.993Z,97.13
2022-12-02T11:12:38.583Z,97.05
2022-12-02T11:15:03.271Z,97.06
2022-12-02T11:17:17.873Z,96.85
2022-12-02T11:19:47.765Z,96.62
2022-12-02T11:22:01.677Z,96.96
2022-12-02T11:24:41.393Z,96.85
2022-12-02T11:27:18.675Z,96.51
2022-12-02T11:29:33.572Z,96.23
2022-12-02T11:32:03.838Z,96.42
2022-12-02T11:37:49.522Z,96.31
2022-12-02T11:40:05.488Z,96.33
2022-12-02T11:42:30.234Z,96.38
2022-12-02T11:44:45.143Z,96.17
2022-12-02T11:47:00.267Z,95.94
2022-12-02T11:49:39.650Z,95.73
2022-12-02T11:51:53.585Z,95.69
2022-12-02T11:54:07.939Z,95.67
2022-12-02T11:56:24.565Z,95.61
2022-12-02T11:58:39.327Z,95.59
2022-12-02T12:01:07.712Z,95.73
2022-12-02T12:03:23.303Z,95.64
2022-12-02T12:05:37.403Z,95.66
2022-12-02T12:07:55.019Z,95.58
2022-12-02T12:10:25.253Z,95.77
2022-12-02T12:12:39.110Z,95.82
2022-12-02T12:15:03.866Z,95.65
2022-12-02T12:17:46.079Z,95.62
2022-12-02T12:19:59.822Z,95.78
2022-12-02T12:22:31.021Z,95.85
2022-12-02T12:24:44.971Z,95.92
2022-12-02T12:26:59.858Z,96.07
2022-12-02T12:29:13.596Z,96.85
2022-12-02T12:31:27.451Z,97.24
2022-12-02T12:33:42.236Z,97.47
2022-12-02T12:35:56.889Z,97.54
2022-12-02T12:38:10.823Z,97.40
2022-12-02T12:40:24.987Z,97.28
2022-12-02T12:42:38.710Z,97.12
2022-12-02T12:44:53.963Z,96.79
2022-12-02T12:47:09.660Z,96.45
2022-12-02T12:49:23.695Z,96.26
2022-12-02T12:51:37.687Z,96.26
2022-12-02T12:53:51.576Z,96.20
2022-12-02T12:56:05.551Z,96.03
2022-12-02T12:58:19.570Z,95.74
2022-12-02T13:00:33.641Z,95.88
2022-12-02T13:02:47.872Z,96.14
2022-12-02T13:05:02.244Z,96.07
2022-12-02T13:07:16.209Z,96.06
2022-12-02T13:09:31.111Z,96.38
2022-12-02T13:11:46.596Z,96.57
2022-12-02T13:14:00.380Z,96.78
2022-12-02T13:16:14.520Z,97.10
2022-12-02T13:18:28.403Z,97.43
2022-12-02T13:20:42.260Z,97.61
2022-12-02T13:22:56.160Z,97.71
2022-12-02T13:25:10.734Z,97.74
2022-12-02T13:27:24.502Z,97.76
2022-12-02T13:29:38.416Z,97.77
2022-12-02T13:31:52.304Z,97.79
2022-12-02T13:34:06.141Z,97.57
2022-12-02T13:36:20.144Z,97.70
2022-12-02T13:38:33.921Z,97.72
2022-12-02T13:40:52.030Z,97.68
2022-12-02T13:43:06.176Z,97.64
2022-12-02T13:45:20.245Z,97.84
2022-12-02T13:47:33.950Z,97.82
2022-12-02T13:49:48.271Z,97.63
2022-12-02T13:52:02.146Z,97.67
2022-12-02T13:54:16.288Z,97.58
2022-12-02T13:56:30.376Z,97.52
2022-12-02T13:58:44.182Z,97.66
2022-12-02T14:00:58.404Z,97.67
2022-12-02T14:03:12.719Z,97.62
2022-12-02T14:05:26.675Z,97.57
2022-12-02T14:07:40.709Z,97.66
2022-12-02T14:09:57.316Z,97.43
2022-12-02T14:12:11.640Z,97.36
2022-12-02T14:14:25.666Z,97.15
2022-12-02T14:16:39.481Z,97.08
2022-12-02T14:18:57.302Z,96.83
2022-12-02T14:21:11.811Z,96.75
2022-12-02T14:23:25.648Z,96.64
2022-12-02T14:25:39.627Z,96.50
2022-12-02T14:27:53.479Z,96.50
2022-12-02T14:30:08.759Z,96.32
2022-12-02T14:32:22.735Z,96.40
2022-12-02T14:34:36.740Z,96.41
2022-12-02T14:36:50.954Z,96.19
2022-12-02T14:39:04.960Z,96.15
2022-12-02T14:41:19.959Z,96.19
2022-12-02T14:43:33.896Z,96.14
2022-12-02T14:45:47.877Z,96.16
2022-12-02T14:48:01.919Z,95.95
2022-12-02T14:50:16.777Z,95.86
2022-12-02T14:52:30.813Z,95.88
2022-12-02T14:54:44.759Z,95.83
2022-12-02T14:56:58.810Z,95.82
2022-12-02T14:59:14.982Z,95.44
2022-12-02T15:01:29.297Z,95.38
2022-12-02T15:03:43.051Z,95.39
2022-12-02T15:05:56.870Z,95.30
2022-12-02T15:08:11.323Z,95.17
2022-12-02T15:10:25.313Z,95.06
2022-12-02T15:12:39.157Z,94.97
2022-12-02T15:14:53.075Z,94.94
2022-12-02T15:17:07.646Z,94.60
2022-12-02T15:19:21.659Z,94.57
2022-12-02T15:21:35.514Z,94.46
2022-12-02T15:23:49.353Z,94.48
2022-12-02T15:26:03.101Z,94.41
2022-12-02T15:28:16.941Z,94.32
2022-12-02T15:30:30.789Z,94.34
2022-12-02T15:32:46.235Z,94.10
2022-12-02T15:34:59.964Z,94.11
2022-12-02T15:37:13.860Z,93.98
2022-12-02T15:39:27.692Z,93.95
2022-12-02T15:41:41.414Z,93.61
2022-12-02T15:43:55.268Z,93.78
2022-12-02T15:46:09.247Z,93.64
2022-12-02T15:48:22.997Z,93.64
2022-12-02T15:50:37.049Z,93.66
2022-12-02T15:52:50.939Z,93.56
2022-12-02T15:55:04.704Z,93.37
2022-12-02T15:57:18.642Z,93.47
2022-12-02T15:59:32.746Z,93.55
2022-12-02T16:01:46.796Z,93.64
2022-12-02T16:04:00.834Z,93.43
2022-12-02T16:06:15.099Z,93.19
2022-12-02T16:08:28.898Z,93.40
2022-12-02T16:10:42.668Z,93.53
2022-12-02T16:12:56.630Z,93.59
2022-12-02T16:15:11.315Z,93.68
2022-12-02T16:17:25.024Z,93.44
2022-12-02T16:19:38.859Z,93.47
2022-12-02T16:21:52.609Z,93.65
2022-12-02T16:24:07.019Z,93.63
2022-12-02T16:26:20.961Z,93.65
2022-12-02T16:28:34.768Z,93.74
2022-12-02T16:30:48.516Z,93.53
2022-12-02T16:33:02.537Z,93.60
2022-12-02T16:35:16.600Z,93.31
2022-12-02T16:37:30.415Z,93.33
2022-12-02T16:39:44.169Z,93.39
2022-12-02T16:41:57.979Z,93.09
2022-12-02T16:44:12.021Z,92.82
2022-12-02T16:46:26.421Z,92.64
2022-12-02T16:48:40.277Z,92.46
2022-12-02T16:50:56.024Z,92.42
2022-12-02T16:53:10.143Z,92.78
2022-12-02T16:55:24.221Z,92.89
2022-12-02T16:57:38.162Z,92.90
2022-12-02T16:59:52.313Z,93.17
2022-12-02T17:02:06.486Z,92.99
2022-12-02T17:04:20.595Z,93.03
2022-12-02T17:06:34.353Z,93.08
2022-12-02T17:08:52.408Z,92.49
2022-12-02T17:11:09.256Z,92.74
2022-12-02T17:13:23.004Z,92.73
2022-12-02T17:15:36.858Z,92.90
2022-12-02T17:17:50.913Z,92.66
2022-12-02T17:20:05.822Z,92.26
2022-12-02T17:22:19.674Z,92.33
2022-12-02T17:24:33.488Z,92.30
2022-12-02T17:26:51.290Z,92.12
2022-12-02T17:29:08.066Z,92.18
2022-12-02T17:31:21.922Z,91.58
2022-12-02T17:33:36.012Z,91.50
2022-12-02T17:35:49.925Z,91.09
2022-12-02T17:38:03.921Z,90.94
2022-12-02T17:40:20.078Z,91.14
2022-12-02T17:42:33.991Z,91.02
2022-12-02T17:44:48.122Z,90.37
2022-12-02T17:47:02.158Z,89.92
2022-12-02T17:49:16.069Z,90.04
2022-12-02T17:51:29.947Z,90.05
2022-12-02T17:53:44.148Z,89.09
2022-12-02T17:55:58.337Z,89.11
2022-12-02T17:58:12.995Z,89.48
2022-12-02T18:00:28.489Z,89.12
2022-12-02T18:02:42.523Z,88.76
2022-12-02T18:04:56.529Z,88.29
2022-12-02T18:07:10.442Z,88.31
2022-12-02T18:09:24.294Z,88.36
2022-12-02T18:11:38.295Z,88.58
2022-12-02T18:13:52.357Z,88.44
2022-12-02T18:16:06.895Z,87.75
2022-12-02T18:18:20.791Z,87.89
2022-12-02T18:20:34.820Z,87.55
2022-12-02T18:22:49.081Z,86.57
2022-12-02T18:25:03.035Z,87.24
2022-12-02T18:27:17.026Z,86.73
2022-12-02T18:29:31.059Z,86.46
2022-12-02T18:31:45.033Z,86.72
2022-12-02T18:33:58.994Z,86.81
2022-12-02T18:36:13.606Z,85.91
2022-12-02T18:38:27.756Z,86.20
2022-12-02T18:40:41.744Z,85.86
2022-12-02T18:42:57.421Z,86.29
2022-12-02T18:45:12.585Z,86.26
2022-12-02T18:47:26.642Z,84.94
2022-12-02T18:49:42.814Z,85.39
2022-12-02T18:51:57.301Z,85.43
2022-12-02T18:54:11.163Z,83.27
2022-12-02T18:56:25.047Z,84.25
2022-12-02T18:58:38.801Z,83.87
2022-12-02T19:00:54.174Z,83.03
2022-12-02T19:03:08.067Z,83.27
2022-12-02T19:05:22.610Z,82.95
2022-12-02T19:07:36.617Z,82.24
2022-12-02T19:09:53.916Z,82.74
2022-12-02T19:12:08.303Z,82.59
2022-12-02T19:14:22.138Z,81.99
2022-12-02T19:16:36.130Z,81.86
2022-12-02T19:18:50.203Z,80.93
2022-12-02T19:21:04.332Z,81.62
2022-12-02T19:23:18.158Z,81.18
2022-12-02T19:25:32.958Z,81.41
2022-12-02T19:27:57.453Z,80.49
2022-12-02T19:30:14.282Z,81.07
2022-12-02T19:32:27.967Z,80.62
2022-12-02T19:34:41.787Z,80.33
2022-12-02T19:36:55.976Z,80.55
2022-12-02T19:39:10.992Z,79.39
2022-12-02T19:41:24.747Z,79.88
2022-12-02T19:43:38.568Z,80.25
2022-12-02T19:45:52.490Z,80.42
2022-12-02T19:48:06.404Z,80.24
2022-12-02T19:50:21.093Z,80.23
2022-12-02T19:52:34.907Z,80.28
2022-12-02T19:54:51.662Z,80.48
2022-12-02T19:57:05.910Z,79.02
2022-12-02T19:59:19.753Z,79.17
2022-12-02T20:01:38.898Z,79.25
2022-12-02T20:03:53.146Z,79.14
2022-12-02T20:06:06.842Z,78.20
2022-12-02T20:08:20.749Z,78.54
2022-12-02T20:10:38.497Z,79.15
2022-12-02T20:12:52.732Z,79.12
2022-12-02T20:15:06.987Z,78.58
2022-12-02T20:17:20.840Z,78.62
2022-12-02T20:19:34.761Z,78.51
2022-12-02T20:21:48.555Z,78.59
2022-12-02T20:24:02.341Z,78.12
2022-12-02T20:26:16.147Z,78.04
2022-12-02T20:28:29.975Z,77.27
2022-12-02T20:30:43.957Z,77.18
2022-12-02T20:32:57.865Z,77.46
2022-12-02T20:35:12.342Z,77.48
2022-12-02T20:37:26.308Z,77.63
2022-12-02T20:39:40.984Z,78.02
2022-12-02T20:41:55.204Z,78.14
2022-12-02T20:44:09.159Z,78.19
2022-12-02T20:46:24.761Z,78.26
2022-12-02T20:48:38.582Z,77.93
2022-12-02T20:50:52.502Z,78.09
2022-12-02T20:53:06.382Z,78.26
2022-12-02T20:55:20.323Z,78.13
2022-12-02T20:57:34.266Z,78.03
2022-12-02T20:59:48.175Z,77.75
2022-12-02T21:02:02.210Z,77.40
2022-12-02T21:04:17.526Z,77.63
2022-12-02T21:06:31.745Z,77.58
2022-12-02T21:08:45.759Z,77.53
2022-12-02T21:10:59.731Z,77.62
2022-12-02T21:13:13.630Z,77.63
2022-12-02T21:15:27.639Z,77.55
2022-12-02T21:17:41.940Z,77.60
2022-12-02T21:19:55.940Z,77.68
2022-12-02T21:22:09.924Z,77.60
2022-12-02T21:24:23.975Z,77.65
2022-12-02T21:26:38.075Z,77.66
2022-12-02T21:28:52.081Z,77.81
2022-12-02T21:31:06.373Z,77.72
2022-12-02T21:33:20.272Z,77.91
2022-12-02T21:35:34.327Z,77.97
2022-12-02T21:37:48.637Z,77.88
2022-12-02T21:40:02.581Z,77.73
2022-12-02T21:42:16.430Z,77.66
2022-12-02T21:44:30.450Z,77.61
2022-12-02T21:46:45.359Z,77.72
2022-12-02T21:48:59.166Z,77.67
2022-12-02T21:51:13.379Z,77.74
2022-12-02T21:53:27.259Z,77.83
2022-12-02T21:55:41.037Z,77.52
2022-12-02T21:57:54.901Z,77.71
2022-12-02T22:00:13.150Z,77.95
2022-12-02T22:02:28.689Z,77.85
2022-12-02T22:04:42.545Z,77.94
2022-12-02T22:07:17.050Z,78.40
2022-12-02T22:09:30.923Z,78.54
2022-12-02T22:11:44.748Z,78.76
2022-12-02T22:13:58.849Z,78.42
2022-12-02T22:16:13.140Z,78.66
2022-12-02T22:18:27.342Z,78.73
2022-12-02T22:20:41.233Z,78.76
2022-12-02T22:22:55.149Z,79.02
2022-12-02T22:25:09.516Z,78.91
2022-12-02T22:27:23.353Z,79.05
2022-12-02T22:29:37.194Z,79.06
2022-12-02T22:31:51.024Z,79.03
2022-12-02T22:34:04.904Z,78.88
2022-12-02T22:36:18.786Z,78.94
2022-12-02T22:38:32.641Z,79.15
2022-12-02T22:40:46.740Z,79.06
2022-12-02T22:43:00.691Z,79.06
2022-12-02T22:45:16.696Z,79.34
2022-12-02T22:47:30.496Z,79.41
2022-12-02T22:49:44.305Z,79.41
2022-12-02T22:51:58.036Z,79.43
2022-12-02T22:54:13.039Z,79.62
2022-12-02T22:56:26.865Z,79.61
2022-12-02T22:58:40.773Z,79.74
2022-12-02T23:00:54.840Z,79.63
2022-12-02T23:03:08.904Z,79.63
2022-12-02T23:05:22.975Z,79.64
2022-12-02T23:07:36.847Z,79.90
2022-12-02T23:09:50.552Z,80.13
2022-12-02T23:12:07.825Z,80.09
2022-12-02T23:14:21.894Z,80.01
2022-12-02T23:16:36.019Z,80.05
2022-12-02T23:18:50.048Z,80.20
2022-12-02T23:21:04.072Z,80.24
2022-12-02T23:23:18.060Z,80.30
2022-12-02T23:25:32.970Z,80.42
2022-12-02T23:27:46.839Z,80.59
2022-12-02T23:30:00.656Z,80.74
2022-12-02T23:32:14.537Z,80.78
2022-12-02T23:34:28.346Z,80.89
2022-12-02T23:36:42.302Z,80.89
2022-12-02T23:38:56.076Z,80.96
2022-12-02T23:41:10.191Z,80.79
2022-12-02T23:43:24.065Z,81.14
2022-12-02T23:45:38.031Z,81.09
2022-12-02T23:47:52.005Z,81.10
2022-12-02T23:50:05.770Z,81.17
2022-12-02T23:52:19.576Z,81.28
2022-12-02T23:54:33.477Z,81.41
2022-12-02T23:56:47.329Z,81.31
2022-12-02T23:59:01.980Z,81.14
